Dorris, CA (96023)

11:02 PM PDT on August 27, 2016 (GMT -0700)
RAWS | | Change Station

Elev 4200 ft 42.06 °N, 121.93 °W | Updated 15 hours ago

Clear
Clear
55 °F
Feels Like 55 °F
N
3
Wind Variable Wind from WNW
Gusts mph

Today
High -- | Low -- °F
--% Chance of Precip.
Yesterday
High -- | Low -- °F
Precip. -- in
Pressure 29.97 in
Visibility 10.0 miles
Clouds Clear
Dew Point 43 °F
Humidity 65%
Rainfall in
Snow Depth Not available.
6:28 AM 7:48 PM
Waning Crescent, 18% visible
METAR KLMT 280553Z AUTO 00000KT 10SM CLR 17/08 A3009 RMK AO2 SLP147 T01720078 10300 20167 51016
Pressure 29.97 in
Visibility 10.0 miles
Clouds Clear
Dew Point 43 °F
Humidity 65%
Rainfall in
Snow Depth Not available.
6:28 AM 7:48 PM
Waning Crescent, 18% visible
METAR KLMT 280553Z AUTO 00000KT 10SM CLR 17/08 A3009 RMK AO2 SLP147 T01720078 10300 20167 51016

10-Day Weather Forecast

Almanac

Astronomy

Aug. 27, 2016 Rise Set
Actual Time
Civil Twilight
Nautical Twilight
Astronomical Twilight
Moon
Length of Visible Light
Length of Day
Tomorrow will be .
, % of the Moon is Illuminated

Today's Extremes

State Highs State Lows

Community

WunderPhotos

Upload Photos

1,935,533 photos uploaded!

WunderBlog® & News

Nearby

Air Quality

  Air Quality AQ Index Pollutant
Not available.

Snow Depth

Station Depth Elevation

Earthquake Activity

City Distance Mag. Time & Date
Minimum magnitude displayed is 2.5.

Coastal Water Temperatures

Place Temperature

Stations

Nearby Weather Stations

Station Location Temp. Windchill Dew Point Humidity Wind Precip. Elev Updated Type
                   

Watches & Warnings

There are currently no watches in effect.